sensor_id;sensor_type;location;lat;lon;timestamp;P1;durP1;ratioP1;P2;durP2;ratioP2
11893;SDS011;6006;49.696;8.662;2023-12-04T00:00:09;5.50;;;2.77;;
11893;SDS011;6006;49.696;8.662;2023-12-04T00:02:38;2.83;;;2.53;;
11893;SDS011;6006;49.696;8.662;2023-12-04T00:05:05;3.40;;;2.67;;
11893;SDS011;6006;49.696;8.662;2023-12-04T00:07:33;2.73;;;2.53;;
11893;SDS011;6006;49.696;8.662;2023-12-04T00:10:00;5.83;;;3.63;;
11893;SDS011;6006;49.696;8.662;2023-12-04T00:12:27;2.20;;;2.00;;
11893;SDS011;6006;49.696;8.662;2023-12-04T00:14:54;5.90;;;2.70;;
11893;SDS011;6006;49.696;8.662;2023-12-04T00:17:21;3.03;;;2.70;;
11893;SDS011;6006;49.696;8.662;2023-12-04T00:19:49;2.47;;;2.30;;
11893;SDS011;6006;49.696;8.662;2023-12-04T00:22:17;3.50;;;2.53;;
11893;SDS011;6006;49.696;8.662;2023-12-04T00:24:43;1.87;;;1.77;;
11893;SDS011;6006;49.696;8.662;2023-12-04T00:27:10;4.67;;;2.67;;
11893;SDS011;6006;49.696;8.662;2023-12-04T00:29:38;1.97;;;1.87;;
11893;SDS011;6006;49.696;8.662;2023-12-04T00:32:05;2.57;;;1.77;;
11893;SDS011;6006;49.696;8.662;2023-12-04T00:34:32;2.93;;;2.50;;
11893;SDS011;6006;49.696;8.662;2023-12-04T00:37:00;1.80;;;1.70;;
11893;SDS011;6006;49.696;8.662;2023-12-04T00:39:27;2.80;;;2.60;;
11893;SDS011;6006;49.696;8.662;2023-12-04T00:41:54;2.10;;;1.90;;
11893;SDS011;6006;49.696;8.662;2023-12-04T00:44:21;2.57;;;1.73;;
11893;SDS011;6006;49.696;8.662;2023-12-04T00:46:48;1.63;;;1.50;;
11893;SDS011;6006;49.696;8.662;2023-12-04T00:49:15;1.50;;;1.40;;
11893;SDS011;6006;49.696;8.662;2023-12-04T00:51:41;2.53;;;2.33;;
11893;SDS011;6006;49.696;8.662;2023-12-04T00:54:10;2.97;;;2.03;;
11893;SDS011;6006;49.696;8.662;2023-12-04T00:56:37;3.40;;;1.10;;
11893;SDS011;6006;49.696;8.662;2023-12-04T00:59:05;1.77;;;1.07;;
11893;SDS011;6006;49.696;8.662;2023-12-04T01:01:32;3.43;;;1.80;;
11893;SDS011;6006;49.696;8.662;2023-12-04T01:03:59;3.27;;;2.40;;
11893;SDS011;6006;49.696;8.662;2023-12-04T01:06:26;2.57;;;1.93;;
11893;SDS011;6006;49.696;8.662;2023-12-04T01:08:54;2.00;;;1.47;;
11893;SDS011;6006;49.696;8.662;2023-12-04T01:11:23;1.67;;;1.57;;
11893;SDS011;6006;49.696;8.662;2023-12-04T01:13:50;2.70;;;1.87;;
11893;SDS011;6006;49.696;8.662;2023-12-04T01:16:17;3.33;;;2.13;;
11893;SDS011;6006;49.696;8.662;2023-12-04T01:18:44;2.53;;;1.63;;
11893;SDS011;6006;49.696;8.662;2023-12-04T01:21:11;2.37;;;2.07;;
11893;SDS011;6006;49.696;8.662;2023-12-04T01:23:38;2.43;;;1.60;;
11893;SDS011;6006;49.696;8.662;2023-12-04T01:26:05;1.63;;;1.13;;
11893;SDS011;6006;49.696;8.662;2023-12-04T01:28:33;1.50;;;1.47;;
11893;SDS011;6006;49.696;8.662;2023-12-04T01:31:00;4.33;;;2.33;;
11893;SDS011;6006;49.696;8.662;2023-12-04T01:33:27;3.30;;;2.90;;
11893;SDS011;6006;49.696;8.662;2023-12-04T01:35:54;2.53;;;2.33;;
11893;SDS011;6006;49.696;8.662;2023-12-04T01:38:21;2.10;;;1.80;;
11893;SDS011;6006;49.696;8.662;2023-12-04T01:40:48;2.07;;;1.57;;
11893;SDS011;6006;49.696;8.662;2023-12-04T01:43:16;0.77;;;0.77;;
11893;SDS011;6006;49.696;8.662;2023-12-04T01:45:44;2.30;;;2.03;;
11893;SDS011;6006;49.696;8.662;2023-12-04T01:48:12;3.57;;;2.23;;
11893;SDS011;6006;49.696;8.662;2023-12-04T01:50:41;2.37;;;2.23;;
11893;SDS011;6006;49.696;8.662;2023-12-04T01:53:08;3.50;;;2.27;;
11893;SDS011;6006;49.696;8.662;2023-12-04T01:55:35;2.23;;;1.50;;
11893;SDS011;6006;49.696;8.662;2023-12-04T01:58:03;4.40;;;1.90;;
11893;SDS011;6006;49.696;8.662;2023-12-04T02:00:31;2.43;;;1.57;;
11893;SDS011;6006;49.696;8.662;2023-12-04T02:03:00;1.53;;;1.23;;
11893;SDS011;6006;49.696;8.662;2023-12-04T02:05:27;2.57;;;1.93;;
11893;SDS011;6006;49.696;8.662;2023-12-04T02:07:55;4.53;;;2.13;;
11893;SDS011;6006;49.696;8.662;2023-12-04T02:10:22;2.57;;;2.30;;
11893;SDS011;6006;49.696;8.662;2023-12-04T02:12:49;3.13;;;1.67;;
11893;SDS011;6006;49.696;8.662;2023-12-04T02:15:16;2.10;;;0.90;;
11893;SDS011;6006;49.696;8.662;2023-12-04T02:17:43;3.30;;;2.30;;
11893;SDS011;6006;49.696;8.662;2023-12-04T02:20:13;2.13;;;1.70;;
11893;SDS011;6006;49.696;8.662;2023-12-04T02:22:40;3.20;;;2.30;;
11893;SDS011;6006;49.696;8.662;2023-12-04T02:25:09;3.57;;;2.37;;
11893;SDS011;6006;49.696;8.662;2023-12-04T02:27:37;1.87;;;1.70;;
11893;SDS011;6006;49.696;8.662;2023-12-04T02:30:08;4.93;;;2.67;;
11893;SDS011;6006;49.696;8.662;2023-12-04T02:32:38;3.70;;;2.00;;
11893;SDS011;6006;49.696;8.662;2023-12-04T02:35:11;1.73;;;1.63;;
11893;SDS011;6006;49.696;8.662;2023-12-04T02:37:40;1.53;;;1.43;;
11893;SDS011;6006;49.696;8.662;2023-12-04T02:40:10;1.67;;;1.53;;
11893;SDS011;6006;49.696;8.662;2023-12-04T02:42:38;4.10;;;2.33;;
11893;SDS011;6006;49.696;8.662;2023-12-04T02:45:05;3.70;;;2.00;;
11893;SDS011;6006;49.696;8.662;2023-12-04T02:47:33;1.07;;;1.07;;
11893;SDS011;6006;49.696;8.662;2023-12-04T02:50:00;2.33;;;2.13;;
11893;SDS011;6006;49.696;8.662;2023-12-04T02:52:27;1.70;;;1.70;;
11893;SDS011;6006;49.696;8.662;2023-12-04T02:54:54;2.63;;;2.07;;
11893;SDS011;6006;49.696;8.662;2023-12-04T02:57:22;1.47;;;1.37;;
11893;SDS011;6006;49.696;8.662;2023-12-04T02:59:49;4.47;;;1.93;;
11893;SDS011;6006;49.696;8.662;2023-12-04T03:02:16;2.30;;;1.50;;
11893;SDS011;6006;49.696;8.662;2023-12-04T03:04:43;2.53;;;1.47;;
11893;SDS011;6006;49.696;8.662;2023-12-04T03:07:11;2.33;;;1.57;;
11893;SDS011;6006;49.696;8.662;2023-12-04T03:09:38;4.20;;;1.73;;
11893;SDS011;6006;49.696;8.662;2023-12-04T03:12:05;1.93;;;1.43;;
11893;SDS011;6006;49.696;8.662;2023-12-04T03:14:33;2.23;;;1.43;;
11893;SDS011;6006;49.696;8.662;2023-12-04T03:17:00;2.77;;;1.37;;
11893;SDS011;6006;49.696;8.662;2023-12-04T03:19:27;2.40;;;2.20;;
11893;SDS011;6006;49.696;8.662;2023-12-04T03:21:54;1.97;;;1.43;;
11893;SDS011;6006;49.696;8.662;2023-12-04T03:24:21;5.40;;;2.13;;
11893;SDS011;6006;49.696;8.662;2023-12-04T03:26:48;3.00;;;2.00;;
11893;SDS011;6006;49.696;8.662;2023-12-04T03:29:15;1.80;;;1.70;;
11893;SDS011;6006;49.696;8.662;2023-12-04T03:31:43;2.17;;;1.97;;
11893;SDS011;6006;49.696;8.662;2023-12-04T03:34:10;2.77;;;2.57;;
11893;SDS011;6006;49.696;8.662;2023-12-04T03:36:37;1.63;;;1.53;;
11893;SDS011;6006;49.696;8.662;2023-12-04T03:39:04;1.60;;;1.03;;
11893;SDS011;6006;49.696;8.662;2023-12-04T03:41:31;3.03;;;2.17;;
11893;SDS011;6006;49.696;8.662;2023-12-04T03:43:58;3.73;;;1.87;;
11893;SDS011;6006;49.696;8.662;2023-12-04T03:46:25;3.80;;;1.80;;
11893;SDS011;6006;49.696;8.662;2023-12-04T03:48:53;3.37;;;1.83;;
11893;SDS011;6006;49.696;8.662;2023-12-04T03:51:21;1.33;;;1.27;;
11893;SDS011;6006;49.696;8.662;2023-12-04T03:53:48;4.40;;;1.70;;
11893;SDS011;6006;49.696;8.662;2023-12-04T03:56:15;2.37;;;1.67;;
11893;SDS011;6006;49.696;8.662;2023-12-04T03:58:42;3.57;;;1.97;;
11893;SDS011;6006;49.696;8.662;2023-12-04T04:01:09;3.27;;;2.20;;
11893;SDS011;6006;49.696;8.662;2023-12-04T04:03:35;3.20;;;1.70;;
11893;SDS011;6006;49.696;8.662;2023-12-04T04:06:04;3.07;;;1.83;;
11893;SDS011;6006;49.696;8.662;2023-12-04T04:08:31;2.03;;;1.93;;
11893;SDS011;6006;49.696;8.662;2023-12-04T04:10:58;3.07;;;1.80;;
11893;SDS011;6006;49.696;8.662;2023-12-04T04:13:25;2.67;;;1.37;;
11893;SDS011;6006;49.696;8.662;2023-12-04T04:15:52;4.87;;;2.40;;
11893;SDS011;6006;49.696;8.662;2023-12-04T04:18:19;4.43;;;1.50;;
11893;SDS011;6006;49.696;8.662;2023-12-04T04:20:46;2.47;;;1.73;;
11893;SDS011;6006;49.696;8.662;2023-12-04T04:23:14;1.80;;;1.70;;
11893;SDS011;6006;49.696;8.662;2023-12-04T04:25:41;2.13;;;1.33;;
11893;SDS011;6006;49.696;8.662;2023-12-04T04:28:08;1.70;;;1.43;;
11893;SDS011;6006;49.696;8.662;2023-12-04T04:30:35;2.13;;;1.67;;
11893;SDS011;6006;49.696;8.662;2023-12-04T04:33:02;1.60;;;1.40;;
11893;SDS011;6006;49.696;8.662;2023-12-04T04:35:30;2.23;;;2.10;;
11893;SDS011;6006;49.696;8.662;2023-12-04T04:37:57;2.37;;;1.37;;
11893;SDS011;6006;49.696;8.662;2023-12-04T04:40:25;1.60;;;1.50;;
11893;SDS011;6006;49.696;8.662;2023-12-04T04:42:52;2.17;;;1.93;;
11893;SDS011;6006;49.696;8.662;2023-12-04T04:45:19;4.30;;;1.47;;
11893;SDS011;6006;49.696;8.662;2023-12-04T04:47:46;3.37;;;2.30;;
11893;SDS011;6006;49.696;8.662;2023-12-04T04:50:13;2.47;;;1.83;;
11893;SDS011;6006;49.696;8.662;2023-12-04T04:52:40;1.90;;;1.80;;
11893;SDS011;6006;49.696;8.662;2023-12-04T04:55:07;2.80;;;1.40;;
11893;SDS011;6006;49.696;8.662;2023-12-04T04:57:35;2.00;;;1.73;;
11893;SDS011;6006;49.696;8.662;2023-12-04T05:00:02;1.57;;;1.17;;
11893;SDS011;6006;49.696;8.662;2023-12-04T05:02:30;2.13;;;1.47;;
11893;SDS011;6006;49.696;8.662;2023-12-04T05:04:57;1.77;;;1.60;;
11893;SDS011;6006;49.696;8.662;2023-12-04T05:07:24;2.77;;;2.47;;
11893;SDS011;6006;49.696;8.662;2023-12-04T05:09:51;1.93;;;1.63;;
11893;SDS011;6006;49.696;8.662;2023-12-04T05:12:18;1.83;;;1.50;;
11893;SDS011;6006;49.696;8.662;2023-12-04T05:14:46;3.00;;;1.87;;
11893;SDS011;6006;49.696;8.662;2023-12-04T05:17:13;6.13;;;2.07;;
11893;SDS011;6006;49.696;8.662;2023-12-04T05:19:40;4.07;;;2.17;;
11893;SDS011;6006;49.696;8.662;2023-12-04T05:22:07;1.93;;;1.77;;
11893;SDS011;6006;49.696;8.662;2023-12-04T05:24:34;1.63;;;1.43;;
11893;SDS011;6006;49.696;8.662;2023-12-04T05:27:01;6.00;;;2.30;;
11893;SDS011;6006;49.696;8.662;2023-12-04T05:29:28;2.53;;;2.33;;
11893;SDS011;6006;49.696;8.662;2023-12-04T05:31:57;1.97;;;1.87;;
11893;SDS011;6006;49.696;8.662;2023-12-04T05:34:24;2.90;;;1.87;;
11893;SDS011;6006;49.696;8.662;2023-12-04T05:36:52;1.60;;;1.47;;
11893;SDS011;6006;49.696;8.662;2023-12-04T05:39:18;2.67;;;1.83;;
11893;SDS011;6006;49.696;8.662;2023-12-04T05:41:45;2.97;;;1.90;;
11893;SDS011;6006;49.696;8.662;2023-12-04T05:44:13;3.30;;;1.63;;
11893;SDS011;6006;49.696;8.662;2023-12-04T05:46:39;3.30;;;2.13;;
11893;SDS011;6006;49.696;8.662;2023-12-04T05:49:08;4.97;;;1.80;;
11893;SDS011;6006;49.696;8.662;2023-12-04T05:51:35;1.23;;;1.03;;
11893;SDS011;6006;49.696;8.662;2023-12-04T05:54:02;1.57;;;1.23;;
11893;SDS011;6006;49.696;8.662;2023-12-04T05:56:29;2.77;;;1.77;;
11893;SDS011;6006;49.696;8.662;2023-12-04T05:58:56;1.73;;;1.47;;
11893;SDS011;6006;49.696;8.662;2023-12-04T06:01:23;1.50;;;1.40;;
11893;SDS011;6006;49.696;8.662;2023-12-04T06:03:50;1.77;;;1.60;;
11893;SDS011;6006;49.696;8.662;2023-12-04T06:06:18;1.13;;;1.00;;
11893;SDS011;6006;49.696;8.662;2023-12-04T06:08:45;1.80;;;0.90;;
11893;SDS011;6006;49.696;8.662;2023-12-04T06:11:12;3.20;;;1.70;;
11893;SDS011;6006;49.696;8.662;2023-12-04T06:13:39;3.07;;;2.13;;
11893;SDS011;6006;49.696;8.662;2023-12-04T06:16:06;2.70;;;1.00;;
11893;SDS011;6006;49.696;8.662;2023-12-04T06:18:34;2.57;;;2.33;;
11893;SDS011;6006;49.696;8.662;2023-12-04T06:21:01;2.17;;;1.80;;
11893;SDS011;6006;49.696;8.662;2023-12-04T06:23:30;5.67;;;2.00;;
11893;SDS011;6006;49.696;8.662;2023-12-04T06:25:58;2.20;;;1.70;;
11893;SDS011;6006;49.696;8.662;2023-12-04T06:28:26;3.00;;;1.60;;
11893;SDS011;6006;49.696;8.662;2023-12-04T06:30:54;2.10;;;1.50;;
11893;SDS011;6006;49.696;8.662;2023-12-04T06:33:21;2.03;;;1.80;;
11893;SDS011;6006;49.696;8.662;2023-12-04T06:35:49;2.00;;;1.60;;
11893;SDS011;6006;49.696;8.662;2023-12-04T06:38:16;3.23;;;1.50;;
11893;SDS011;6006;49.696;8.662;2023-12-04T06:40:51;1.63;;;1.53;;
11893;SDS011;6006;49.696;8.662;2023-12-04T06:43:19;3.47;;;2.63;;
11893;SDS011;6006;49.696;8.662;2023-12-04T06:45:47;3.23;;;1.87;;
11893;SDS011;6006;49.696;8.662;2023-12-04T06:48:14;4.80;;;3.07;;
11893;SDS011;6006;49.696;8.662;2023-12-04T06:50:42;2.60;;;2.07;;
11893;SDS011;6006;49.696;8.662;2023-12-04T06:53:09;3.23;;;1.83;;
11893;SDS011;6006;49.696;8.662;2023-12-04T06:55:36;2.87;;;2.17;;
11893;SDS011;6006;49.696;8.662;2023-12-04T06:58:05;2.83;;;1.93;;
11893;SDS011;6006;49.696;8.662;2023-12-04T07:00:31;3.93;;;2.27;;
11893;SDS011;6006;49.696;8.662;2023-12-04T07:02:58;2.80;;;2.60;;
11893;SDS011;6006;49.696;8.662;2023-12-04T07:05:25;4.97;;;2.57;;
11893;SDS011;6006;49.696;8.662;2023-12-04T07:07:52;2.70;;;2.50;;
11893;SDS011;6006;49.696;8.662;2023-12-04T07:10:19;6.67;;;3.77;;
11893;SDS011;6006;49.696;8.662;2023-12-04T07:12:46;4.57;;;2.20;;
11893;SDS011;6006;49.696;8.662;2023-12-04T07:15:14;1.80;;;1.70;;
11893;SDS011;6006;49.696;8.662;2023-12-04T07:17:42;2.87;;;2.57;;
11893;SDS011;6006;49.696;8.662;2023-12-04T07:20:09;2.33;;;2.13;;
11893;SDS011;6006;49.696;8.662;2023-12-04T07:22:37;4.67;;;2.33;;
11893;SDS011;6006;49.696;8.662;2023-12-04T07:25:05;5.37;;;3.43;;
11893;SDS011;6006;49.696;8.662;2023-12-04T07:27:33;2.53;;;2.33;;
11893;SDS011;6006;49.696;8.662;2023-12-04T07:30:00;3.67;;;3.17;;
11893;SDS011;6006;49.696;8.662;2023-12-04T07:32:29;4.93;;;3.40;;
11893;SDS011;6006;49.696;8.662;2023-12-04T07:34:57;2.87;;;2.43;;
11893;SDS011;6006;49.696;8.662;2023-12-04T07:37:25;2.43;;;2.23;;
11893;SDS011;6006;49.696;8.662;2023-12-04T07:39:52;3.17;;;2.73;;
11893;SDS011;6006;49.696;8.662;2023-12-04T07:42:18;8.80;;;5.80;;
11893;SDS011;6006;49.696;8.662;2023-12-04T07:44:45;3.47;;;2.10;;
11893;SDS011;6006;49.696;8.662;2023-12-04T07:47:12;3.90;;;2.27;;
11893;SDS011;6006;49.696;8.662;2023-12-04T07:49:42;4.83;;;4.37;;
11893;SDS011;6006;49.696;8.662;2023-12-04T07:52:10;4.47;;;3.23;;
11893;SDS011;6006;49.696;8.662;2023-12-04T07:54:37;5.63;;;4.57;;
11893;SDS011;6006;49.696;8.662;2023-12-04T07:57:04;7.13;;;2.50;;
11893;SDS011;6006;49.696;8.662;2023-12-04T07:59:31;3.30;;;2.20;;
11893;SDS011;6006;49.696;8.662;2023-12-04T08:01:58;4.57;;;2.70;;
11893;SDS011;6006;49.696;8.662;2023-12-04T08:04:25;6.30;;;3.17;;
11893;SDS011;6006;49.696;8.662;2023-12-04T08:06:53;3.27;;;2.87;;
11893;SDS011;6006;49.696;8.662;2023-12-04T08:09:20;2.90;;;2.50;;
11893;SDS011;6006;49.696;8.662;2023-12-04T08:11:47;8.33;;;4.40;;
11893;SDS011;6006;49.696;8.662;2023-12-04T08:14:14;3.20;;;2.30;;
11893;SDS011;6006;49.696;8.662;2023-12-04T08:16:42;4.10;;;2.60;;
11893;SDS011;6006;49.696;8.662;2023-12-04T08:19:09;5.97;;;3.53;;
11893;SDS011;6006;49.696;8.662;2023-12-04T08:21:36;4.57;;;2.90;;
11893;SDS011;6006;49.696;8.662;2023-12-04T08:24:04;3.40;;;3.10;;
11893;SDS011;6006;49.696;8.662;2023-12-04T08:26:31;4.63;;;3.47;;
11893;SDS011;6006;49.696;8.662;2023-12-04T08:28:58;4.27;;;2.73;;
11893;SDS011;6006;49.696;8.662;2023-12-04T08:31:25;3.80;;;2.97;;
11893;SDS011;6006;49.696;8.662;2023-12-04T08:33:55;4.77;;;3.23;;
11893;SDS011;6006;49.696;8.662;2023-12-04T08:36:22;3.10;;;2.70;;
11893;SDS011;6006;49.696;8.662;2023-12-04T08:38:49;4.90;;;3.80;;
11893;SDS011;6006;49.696;8.662;2023-12-04T08:41:17;5.37;;;3.00;;
11893;SDS011;6006;49.696;8.662;2023-12-04T08:43:44;4.50;;;2.80;;
11893;SDS011;6006;49.696;8.662;2023-12-04T08:46:12;4.17;;;3.73;;
11893;SDS011;6006;49.696;8.662;2023-12-04T08:48:39;5.87;;;4.37;;
11893;SDS011;6006;49.696;8.662;2023-12-04T08:51:07;5.40;;;4.30;;
11893;SDS011;6006;49.696;8.662;2023-12-04T08:53:41;4.60;;;3.83;;
11893;SDS011;6006;49.696;8.662;2023-12-04T08:56:08;3.07;;;2.83;;
11893;SDS011;6006;49.696;8.662;2023-12-04T08:58:37;3.87;;;3.50;;
11893;SDS011;6006;49.696;8.662;2023-12-04T09:01:04;3.83;;;3.43;;
11893;SDS011;6006;49.696;8.662;2023-12-04T09:03:31;7.33;;;4.03;;
11893;SDS011;6006;49.696;8.662;2023-12-04T09:05:58;4.00;;;3.20;;
11893;SDS011;6006;49.696;8.662;2023-12-04T09:08:25;3.13;;;2.93;;
11893;SDS011;6006;49.696;8.662;2023-12-04T09:10:52;4.73;;;3.50;;
11893;SDS011;6006;49.696;8.662;2023-12-04T09:13:19;3.47;;;3.13;;
11893;SDS011;6006;49.696;8.662;2023-12-04T09:15:47;3.57;;;2.90;;
11893;SDS011;6006;49.696;8.662;2023-12-04T09:18:14;5.50;;;3.37;;
11893;SDS011;6006;49.696;8.662;2023-12-04T09:20:41;4.03;;;2.20;;
11893;SDS011;6006;49.696;8.662;2023-12-04T09:23:08;5.70;;;3.57;;
11893;SDS011;6006;49.696;8.662;2023-12-04T09:25:35;3.70;;;3.20;;
11893;SDS011;6006;49.696;8.662;2023-12-04T09:28:02;5.73;;;3.27;;
11893;SDS011;6006;49.696;8.662;2023-12-04T09:30:31;5.23;;;3.87;;
11893;SDS011;6006;49.696;8.662;2023-12-04T09:32:59;2.73;;;2.50;;
11893;SDS011;6006;49.696;8.662;2023-12-04T09:35:26;3.53;;;2.93;;
11893;SDS011;6006;49.696;8.662;2023-12-04T09:37:52;3.40;;;3.10;;
11893;SDS011;6006;49.696;8.662;2023-12-04T09:40:19;4.50;;;3.73;;
11893;SDS011;6006;49.696;8.662;2023-12-04T09:42:46;3.90;;;3.60;;
11893;SDS011;6006;49.696;8.662;2023-12-04T09:45:14;4.37;;;2.43;;
11893;SDS011;6006;49.696;8.662;2023-12-04T09:47:41;6.57;;;2.87;;
11893;SDS011;6006;49.696;8.662;2023-12-04T09:50:10;6.13;;;3.97;;
11893;SDS011;6006;49.696;8.662;2023-12-04T09:52:37;4.33;;;3.57;;
11893;SDS011;6006;49.696;8.662;2023-12-04T09:55:04;4.77;;;3.23;;
11893;SDS011;6006;49.696;8.662;2023-12-04T09:57:31;4.33;;;3.90;;
11893;SDS011;6006;49.696;8.662;2023-12-04T09:59:59;5.60;;;3.57;;
11893;SDS011;6006;49.696;8.662;2023-12-04T10:02:28;4.43;;;2.50;;
11893;SDS011;6006;49.696;8.662;2023-12-04T10:04:55;5.70;;;4.00;;
11893;SDS011;6006;49.696;8.662;2023-12-04T10:07:24;5.47;;;3.43;;
11893;SDS011;6006;49.696;8.662;2023-12-04T10:09:50;5.90;;;4.10;;
11893;SDS011;6006;49.696;8.662;2023-12-04T10:12:18;4.87;;;3.97;;
11893;SDS011;6006;49.696;8.662;2023-12-04T10:14:50;4.00;;;3.60;;
11893;SDS011;6006;49.696;8.662;2023-12-04T10:17:32;4.40;;;3.17;;
11893;SDS011;6006;49.696;8.662;2023-12-04T10:20:05;6.17;;;4.33;;
11893;SDS011;6006;49.696;8.662;2023-12-04T10:22:38;4.40;;;3.77;;
11893;SDS011;6006;49.696;8.662;2023-12-04T10:25:14;5.17;;;4.23;;
11893;SDS011;6006;49.696;8.662;2023-12-04T10:27:42;4.77;;;3.07;;
11893;SDS011;6006;49.696;8.662;2023-12-04T10:30:09;6.50;;;3.87;;
11893;SDS011;6006;49.696;8.662;2023-12-04T10:32:48;5.27;;;4.50;;
11893;SDS011;6006;49.696;8.662;2023-12-04T10:35:15;5.63;;;3.23;;
11893;SDS011;6006;49.696;8.662;2023-12-04T10:37:44;3.67;;;3.27;;
11893;SDS011;6006;49.696;8.662;2023-12-04T10:40:10;6.90;;;4.40;;
11893;SDS011;6006;49.696;8.662;2023-12-04T10:42:37;5.87;;;3.60;;
11893;SDS011;6006;49.696;8.662;2023-12-04T10:45:04;6.17;;;4.43;;
11893;SDS011;6006;49.696;8.662;2023-12-04T10:47:32;5.47;;;4.80;;
11893;SDS011;6006;49.696;8.662;2023-12-04T10:50:01;4.80;;;4.07;;
11893;SDS011;6006;49.696;8.662;2023-12-04T10:52:28;4.33;;;3.93;;
11893;SDS011;6006;49.696;8.662;2023-12-04T10:54:59;5.80;;;3.53;;
11893;SDS011;6006;49.696;8.662;2023-12-04T10:57:27;6.10;;;3.60;;
11893;SDS011;6006;49.696;8.662;2023-12-04T11:00:00;5.57;;;3.53;;
11893;SDS011;6006;49.696;8.662;2023-12-04T11:02:31;5.50;;;3.57;;
11893;SDS011;6006;49.696;8.662;2023-12-04T11:05:01;6.33;;;4.17;;
11893;SDS011;6006;49.696;8.662;2023-12-04T11:07:38;4.17;;;3.10;;
11893;SDS011;6006;49.696;8.662;2023-12-04T11:10:08;4.73;;;3.80;;
11893;SDS011;6006;49.696;8.662;2023-12-04T11:12:38;5.83;;;3.77;;
11893;SDS011;6006;49.696;8.662;2023-12-04T11:15:09;5.23;;;4.20;;
11893;SDS011;6006;49.696;8.662;2023-12-04T11:17:40;4.20;;;3.07;;
11893;SDS011;6006;49.696;8.662;2023-12-04T11:20:10;6.27;;;4.00;;
11893;SDS011;6006;49.696;8.662;2023-12-04T11:22:41;4.93;;;3.93;;
11893;SDS011;6006;49.696;8.662;2023-12-04T11:25:10;4.90;;;2.83;;
11893;SDS011;6006;49.696;8.662;2023-12-04T11:27:39;5.53;;;3.77;;
11893;SDS011;6006;49.696;8.662;2023-12-04T11:30:07;5.87;;;3.67;;
11893;SDS011;6006;49.696;8.662;2023-12-04T11:32:43;5.93;;;4.20;;
11893;SDS011;6006;49.696;8.662;2023-12-04T11:35:12;4.23;;;3.90;;
11893;SDS011;6006;49.696;8.662;2023-12-04T11:37:40;7.13;;;3.90;;
11893;SDS011;6006;49.696;8.662;2023-12-04T11:40:12;4.33;;;3.50;;
11893;SDS011;6006;49.696;8.662;2023-12-04T11:42:39;5.90;;;3.73;;
11893;SDS011;6006;49.696;8.662;2023-12-04T11:45:07;5.10;;;3.70;;
11893;SDS011;6006;49.696;8.662;2023-12-04T11:47:49;5.03;;;3.90;;
11893;SDS011;6006;49.696;8.662;2023-12-04T11:50:18;3.80;;;3.40;;
11893;SDS011;6006;49.696;8.662;2023-12-04T11:52:45;4.47;;;3.47;;
11893;SDS011;6006;49.696;8.662;2023-12-04T11:55:16;4.50;;;2.97;;
11893;SDS011;6006;49.696;8.662;2023-12-04T11:57:44;5.30;;;3.87;;
11893;SDS011;6006;49.696;8.662;2023-12-04T12:00:13;4.83;;;3.23;;
11893;SDS011;6006;49.696;8.662;2023-12-04T12:02:46;4.43;;;3.23;;
11893;SDS011;6006;49.696;8.662;2023-12-04T12:05:27;6.77;;;3.93;;
11893;SDS011;6006;49.696;8.662;2023-12-04T12:07:54;4.33;;;3.43;;
11893;SDS011;6006;49.696;8.662;2023-12-04T12:10:23;8.77;;;3.70;;
11893;SDS011;6006;49.696;8.662;2023-12-04T12:12:50;5.43;;;4.10;;
11893;SDS011;6006;49.696;8.662;2023-12-04T12:15:18;4.57;;;2.63;;
11893;SDS011;6006;49.696;8.662;2023-12-04T12:17:45;3.37;;;2.70;;
11893;SDS011;6006;49.696;8.662;2023-12-04T12:20:14;3.67;;;3.03;;
11893;SDS011;6006;49.696;8.662;2023-12-04T12:22:41;5.83;;;4.73;;
11893;SDS011;6006;49.696;8.662;2023-12-04T12:25:09;5.73;;;4.80;;
11893;SDS011;6006;49.696;8.662;2023-12-04T12:27:38;4.37;;;3.37;;
11893;SDS011;6006;49.696;8.662;2023-12-04T12:30:06;4.40;;;4.00;;
11893;SDS011;6006;49.696;8.662;2023-12-04T12:32:34;4.40;;;4.00;;
11893;SDS011;6006;49.696;8.662;2023-12-04T12:35:01;5.33;;;4.07;;
11893;SDS011;6006;49.696;8.662;2023-12-04T12:37:28;5.87;;;4.17;;
11893;SDS011;6006;49.696;8.662;2023-12-04T12:39:56;6.33;;;4.10;;
11893;SDS011;6006;49.696;8.662;2023-12-04T12:42:23;8.80;;;4.13;;
11893;SDS011;6006;49.696;8.662;2023-12-04T12:44:52;9.23;;;3.73;;
11893;SDS011;6006;49.696;8.662;2023-12-04T12:47:20;7.47;;;3.20;;
11893;SDS011;6006;49.696;8.662;2023-12-04T12:49:47;3.77;;;2.90;;
11893;SDS011;6006;49.696;8.662;2023-12-04T12:52:14;8.37;;;5.00;;
11893;SDS011;6006;49.696;8.662;2023-12-04T12:54:42;4.30;;;3.57;;
11893;SDS011;6006;49.696;8.662;2023-12-04T12:57:10;4.03;;;2.87;;
11893;SDS011;6006;49.696;8.662;2023-12-04T12:59:37;8.87;;;3.17;;
11893;SDS011;6006;49.696;8.662;2023-12-04T13:02:07;5.07;;;3.40;;
11893;SDS011;6006;49.696;8.662;2023-12-04T13:04:35;3.67;;;2.50;;
11893;SDS011;6006;49.696;8.662;2023-12-04T13:07:02;3.60;;;2.30;;
11893;SDS011;6006;49.696;8.662;2023-12-04T13:09:31;3.13;;;2.83;;
11893;SDS011;6006;49.696;8.662;2023-12-04T13:12:00;3.73;;;3.20;;
11893;SDS011;6006;49.696;8.662;2023-12-04T13:14:27;4.10;;;3.33;;
11893;SDS011;6006;49.696;8.662;2023-12-04T13:16:54;6.27;;;3.93;;
11893;SDS011;6006;49.696;8.662;2023-12-04T13:19:22;5.50;;;4.47;;
11893;SDS011;6006;49.696;8.662;2023-12-04T13:21:49;6.60;;;4.07;;
11893;SDS011;6006;49.696;8.662;2023-12-04T13:24:16;6.17;;;4.20;;
11893;SDS011;6006;49.696;8.662;2023-12-04T13:26:44;5.90;;;3.80;;
11893;SDS011;6006;49.696;8.662;2023-12-04T13:29:11;4.43;;;3.37;;
11893;SDS011;6006;49.696;8.662;2023-12-04T13:31:40;8.53;;;4.73;;
11893;SDS011;6006;49.696;8.662;2023-12-04T13:34:08;3.40;;;3.03;;
11893;SDS011;6006;49.696;8.662;2023-12-04T13:36:38;4.43;;;4.03;;
11893;SDS011;6006;49.696;8.662;2023-12-04T13:39:06;4.70;;;3.57;;
11893;SDS011;6006;49.696;8.662;2023-12-04T13:41:41;7.23;;;5.07;;
11893;SDS011;6006;49.696;8.662;2023-12-04T13:44:27;6.10;;;4.80;;
11893;SDS011;6006;49.696;8.662;2023-12-04T13:46:54;6.13;;;5.13;;
11893;SDS011;6006;49.696;8.662;2023-12-04T13:49:21;7.43;;;5.17;;
11893;SDS011;6006;49.696;8.662;2023-12-04T13:51:49;8.70;;;6.43;;
11893;SDS011;6006;49.696;8.662;2023-12-04T13:54:18;8.87;;;5.83;;
11893;SDS011;6006;49.696;8.662;2023-12-04T13:56:50;7.53;;;6.67;;
11893;SDS011;6006;49.696;8.662;2023-12-04T13:59:21;8.87;;;4.33;;
11893;SDS011;6006;49.696;8.662;2023-12-04T14:01:49;5.90;;;5.17;;
11893;SDS011;6006;49.696;8.662;2023-12-04T14:04:17;9.07;;;5.30;;
11893;SDS011;6006;49.696;8.662;2023-12-04T14:06:44;8.30;;;5.80;;
11893;SDS011;6006;49.696;8.662;2023-12-04T14:09:13;8.23;;;6.90;;
11893;SDS011;6006;49.696;8.662;2023-12-04T14:11:42;10.57;;;6.67;;
11893;SDS011;6006;49.696;8.662;2023-12-04T14:14:10;7.57;;;5.67;;
11893;SDS011;6006;49.696;8.662;2023-12-04T14:16:38;8.67;;;5.83;;
11893;SDS011;6006;49.696;8.662;2023-12-04T14:19:05;11.17;;;6.70;;
11893;SDS011;6006;49.696;8.662;2023-12-04T14:21:32;8.67;;;5.73;;
11893;SDS011;6006;49.696;8.662;2023-12-04T14:23:59;6.77;;;5.03;;
11893;SDS011;6006;49.696;8.662;2023-12-04T14:26:27;7.93;;;6.03;;
11893;SDS011;6006;49.696;8.662;2023-12-04T14:28:54;10.60;;;5.10;;
11893;SDS011;6006;49.696;8.662;2023-12-04T14:31:23;10.23;;;6.23;;
11893;SDS011;6006;49.696;8.662;2023-12-04T14:33:50;5.57;;;4.70;;
11893;SDS011;6006;49.696;8.662;2023-12-04T14:36:18;6.20;;;5.30;;
11893;SDS011;6006;49.696;8.662;2023-12-04T14:38:45;8.53;;;5.83;;
11893;SDS011;6006;49.696;8.662;2023-12-04T14:41:12;8.53;;;5.47;;
11893;SDS011;6006;49.696;8.662;2023-12-04T14:43:40;9.30;;;5.33;;
11893;SDS011;6006;49.696;8.662;2023-12-04T14:46:08;11.73;;;7.17;;
11893;SDS011;6006;49.696;8.662;2023-12-04T14:48:36;6.47;;;5.67;;
11893;SDS011;6006;49.696;8.662;2023-12-04T14:51:04;7.33;;;5.30;;
11893;SDS011;6006;49.696;8.662;2023-12-04T14:53:32;12.43;;;6.50;;
11893;SDS011;6006;49.696;8.662;2023-12-04T14:56:09;8.27;;;4.87;;
11893;SDS011;6006;49.696;8.662;2023-12-04T14:58:57;4.80;;;4.30;;
11893;SDS011;6006;49.696;8.662;2023-12-04T15:01:44;10.70;;;6.40;;
11893;SDS011;6006;49.696;8.662;2023-12-04T15:04:33;8.73;;;5.47;;